sensor_id;sensor_type;location;lat;lon;timestamp;pressure;altitude;pressure_sealevel;temperature;humidity
53300;BME280;39187;48.476;8.310;2023-04-28T00:01:18;91123.09;;;9.49;87.55
53300;BME280;39187;48.476;8.310;2023-04-28T00:03:43;91119.28;;;9.50;87.87
53300;BME280;39187;48.476;8.310;2023-04-28T00:06:09;91114.97;;;9.56;86.81
53300;BME280;39187;48.476;8.310;2023-04-28T00:08:35;91106.88;;;9.63;87.11
53300;BME280;39187;48.476;8.310;2023-04-28T00:11:01;91108.78;;;9.63;86.34
53300;BME280;39187;48.476;8.310;2023-04-28T00:13:26;91109.81;;;9.69;85.94
53300;BME280;39187;48.476;8.310;2023-04-28T00:15:52;91111.16;;;9.77;86.35
53300;BME280;39187;48.476;8.310;2023-04-28T00:18:19;91108.56;;;9.74;85.99
53300;BME280;39187;48.476;8.310;2023-04-28T00:20:44;91107.28;;;9.82;85.28
53300;BME280;39187;48.476;8.310;2023-04-28T00:23:10;91096.63;;;10.01;84.40
53300;BME280;39187;48.476;8.310;2023-04-28T00:25:36;91096.09;;;9.90;84.15
53300;BME280;39187;48.476;8.310;2023-04-28T00:28:01;91099.56;;;9.87;84.32
53300;BME280;39187;48.476;8.310;2023-04-28T00:30:28;91092.47;;;9.81;85.62
53300;BME280;39187;48.476;8.310;2023-04-28T00:32:54;91089.38;;;9.66;86.22
53300;BME280;39187;48.476;8.310;2023-04-28T00:35:20;91087.44;;;9.66;86.35
53300;BME280;39187;48.476;8.310;2023-04-28T00:37:45;91081.41;;;9.66;86.12
53300;BME280;39187;48.476;8.310;2023-04-28T00:40:11;91079.06;;;9.68;85.49
53300;BME280;39187;48.476;8.310;2023-04-28T00:42:37;91078.03;;;9.82;84.98
53300;BME280;39187;48.476;8.310;2023-04-28T00:45:02;91071.94;;;9.65;85.82
53300;BME280;39187;48.476;8.310;2023-04-28T00:47:32;91080.03;;;9.78;86.61
53300;BME280;39187;48.476;8.310;2023-04-28T00:49:59;91078.66;;;9.89;85.55
53300;BME280;39187;48.476;8.310;2023-04-28T00:52:26;91074.59;;;9.65;88.09
53300;BME280;39187;48.476;8.310;2023-04-28T00:54:53;91065.78;;;9.68;87.92
53300;BME280;39187;48.476;8.310;2023-04-28T00:57:19;91070.34;;;9.68;87.67
53300;BME280;39187;48.476;8.310;2023-04-28T00:59:44;91061.31;;;9.65;87.50
53300;BME280;39187;48.476;8.310;2023-04-28T01:02:10;91064.84;;;9.58;87.66
53300;BME280;39187;48.476;8.310;2023-04-28T01:04:42;91068.03;;;9.70;87.39
53300;BME280;39187;48.476;8.310;2023-04-28T01:07:09;91058.03;;;9.77;86.98
53300;BME280;39187;48.476;8.310;2023-04-28T01:09:34;91070.78;;;9.66;86.75
53300;BME280;39187;48.476;8.310;2023-04-28T01:12:00;91076.09;;;10.02;85.42
53300;BME280;39187;48.476;8.310;2023-04-28T01:14:26;91073.34;;;10.05;85.21
53300;BME280;39187;48.476;8.310;2023-04-28T01:16:52;91069.34;;;10.17;84.74
53300;BME280;39187;48.476;8.310;2023-04-28T01:19:22;91063.84;;;10.24;84.18
53300;BME280;39187;48.476;8.310;2023-04-28T01:21:48;91060.38;;;10.27;83.70
53300;BME280;39187;48.476;8.310;2023-04-28T01:24:14;91050.84;;;10.30;83.86
53300;BME280;39187;48.476;8.310;2023-04-28T01:26:40;91051.81;;;10.20;84.60
53300;BME280;39187;48.476;8.310;2023-04-28T01:29:05;91057.16;;;10.00;85.94
53300;BME280;39187;48.476;8.310;2023-04-28T01:31:31;91045.09;;;9.95;87.67
53300;BME280;39187;48.476;8.310;2023-04-28T01:33:57;91048.53;;;10.12;87.47
53300;BME280;39187;48.476;8.310;2023-04-28T01:36:22;91046.44;;;10.03;87.26
53300;BME280;39187;48.476;8.310;2023-04-28T01:38:49;91048.97;;;10.11;87.19
53300;BME280;39187;48.476;8.310;2023-04-28T01:41:15;91050.56;;;9.88;86.17
53300;BME280;39187;48.476;8.310;2023-04-28T01:43:41;91049.84;;;10.04;85.16
53300;BME280;39187;48.476;8.310;2023-04-28T01:46:08;91050.03;;;10.13;83.89
53300;BME280;39187;48.476;8.310;2023-04-28T01:48:34;91055.63;;;10.19;84.87
53300;BME280;39187;48.476;8.310;2023-04-28T01:51:00;91057.09;;;10.03;85.62
53300;BME280;39187;48.476;8.310;2023-04-28T01:53:26;91053.84;;;10.12;85.35
53300;BME280;39187;48.476;8.310;2023-04-28T01:55:52;91061.38;;;10.17;84.10
53300;BME280;39187;48.476;8.310;2023-04-28T01:58:18;91056.81;;;10.18;84.35
53300;BME280;39187;48.476;8.310;2023-04-28T02:00:44;91047.38;;;10.13;85.21
53300;BME280;39187;48.476;8.310;2023-04-28T02:03:10;91059.50;;;9.98;87.10
53300;BME280;39187;48.476;8.310;2023-04-28T02:05:36;91054.69;;;10.09;86.77
53300;BME280;39187;48.476;8.310;2023-04-28T02:08:01;91064.63;;;10.05;86.56
53300;BME280;39187;48.476;8.310;2023-04-28T02:10:27;91065.69;;;10.27;84.97
53300;BME280;39187;48.476;8.310;2023-04-28T02:12:53;91066.34;;;10.31;84.26
53300;BME280;39187;48.476;8.310;2023-04-28T02:15:18;91056.81;;;10.18;85.52
53300;BME280;39187;48.476;8.310;2023-04-28T02:17:44;91054.53;;;10.16;86.08
53300;BME280;39187;48.476;8.310;2023-04-28T02:20:09;91052.81;;;10.26;87.21
53300;BME280;39187;48.476;8.310;2023-04-28T02:22:35;91050.56;;;9.88;91.42
53300;BME280;39187;48.476;8.310;2023-04-28T02:25:01;91062.06;;;10.01;92.51
53300;BME280;39187;48.476;8.310;2023-04-28T02:27:26;91057.97;;;10.17;92.77
53300;BME280;39187;48.476;8.310;2023-04-28T02:29:52;91059.41;;;10.01;95.50
53300;BME280;39187;48.476;8.310;2023-04-28T02:32:18;91052.09;;;10.05;96.44
53300;BME280;39187;48.476;8.310;2023-04-28T02:34:43;91049.16;;;10.20;95.97
53300;BME280;39187;48.476;8.310;2023-04-28T02:37:09;91052.06;;;10.25;97.49
53300;BME280;39187;48.476;8.310;2023-04-28T02:39:34;91060.25;;;10.15;99.75
53300;BME280;39187;48.476;8.310;2023-04-28T02:42:00;91057.59;;;9.98;100.00
53300;BME280;39187;48.476;8.310;2023-04-28T02:44:29;91056.44;;;9.80;100.00
53300;BME280;39187;48.476;8.310;2023-04-28T02:46:55;91053.09;;;9.76;100.00
53300;BME280;39187;48.476;8.310;2023-04-28T02:49:21;91058.38;;;9.79;100.00
53300;BME280;39187;48.476;8.310;2023-04-28T02:51:46;91051.13;;;9.80;100.00
53300;BME280;39187;48.476;8.310;2023-04-28T02:54:12;91044.00;;;9.57;100.00
53300;BME280;39187;48.476;8.310;2023-04-28T02:56:37;91046.75;;;9.53;100.00
53300;BME280;39187;48.476;8.310;2023-04-28T02:59:05;91039.94;;;9.33;100.00
53300;BME280;39187;48.476;8.310;2023-04-28T03:01:31;91032.03;;;9.29;100.00
53300;BME280;39187;48.476;8.310;2023-04-28T03:03:57;91036.13;;;9.14;100.00
53300;BME280;39187;48.476;8.310;2023-04-28T03:06:22;91028.75;;;9.41;100.00
53300;BME280;39187;48.476;8.310;2023-04-28T03:08:47;91031.50;;;9.74;100.00
53300;BME280;39187;48.476;8.310;2023-04-28T03:11:13;91023.44;;;9.41;100.00
53300;BME280;39187;48.476;8.310;2023-04-28T03:13:38;91023.13;;;9.19;100.00
53300;BME280;39187;48.476;8.310;2023-04-28T03:16:04;91029.03;;;9.27;100.00
53300;BME280;39187;48.476;8.310;2023-04-28T03:18:30;91021.75;;;9.11;100.00
53300;BME280;39187;48.476;8.310;2023-04-28T03:20:55;91018.28;;;9.14;100.00
53300;BME280;39187;48.476;8.310;2023-04-28T03:23:21;91020.94;;;9.14;100.00
53300;BME280;39187;48.476;8.310;2023-04-28T03:25:46;91016.50;;;9.28;100.00
53300;BME280;39187;48.476;8.310;2023-04-28T03:28:12;91010.03;;;8.89;100.00
53300;BME280;39187;48.476;8.310;2023-04-28T03:30:37;91014.38;;;8.79;100.00
53300;BME280;39187;48.476;8.310;2023-04-28T03:33:03;90998.16;;;8.74;100.00
53300;BME280;39187;48.476;8.310;2023-04-28T03:35:28;91004.75;;;8.66;100.00
53300;BME280;39187;48.476;8.310;2023-04-28T03:37:54;91003.66;;;8.63;100.00
53300;BME280;39187;48.476;8.310;2023-04-28T03:40:19;90996.91;;;8.59;100.00
53300;BME280;39187;48.476;8.310;2023-04-28T03:42:45;90985.91;;;8.60;100.00
53300;BME280;39187;48.476;8.310;2023-04-28T03:45:11;90983.88;;;8.68;100.00
53300;BME280;39187;48.476;8.310;2023-04-28T03:47:36;90981.50;;;8.73;100.00
53300;BME280;39187;48.476;8.310;2023-04-28T03:50:02;90986.56;;;8.64;100.00
53300;BME280;39187;48.476;8.310;2023-04-28T03:52:28;90985.22;;;8.56;100.00
53300;BME280;39187;48.476;8.310;2023-04-28T03:54:53;90984.75;;;8.61;100.00
53300;BME280;39187;48.476;8.310;2023-04-28T03:57:19;90978.38;;;8.78;100.00
53300;BME280;39187;48.476;8.310;2023-04-28T03:59:44;90976.78;;;8.61;100.00
53300;BME280;39187;48.476;8.310;2023-04-28T04:02:10;90974.88;;;8.62;100.00
53300;BME280;39187;48.476;8.310;2023-04-28T04:04:35;90976.88;;;8.77;100.00
53300;BME280;39187;48.476;8.310;2023-04-28T04:07:01;90973.38;;;8.61;100.00
53300;BME280;39187;48.476;8.310;2023-04-28T04:09:26;90969.16;;;8.43;100.00
53300;BME280;39187;48.476;8.310;2023-04-28T04:11:52;90974.03;;;8.45;100.00
53300;BME280;39187;48.476;8.310;2023-04-28T04:14:18;90965.91;;;8.32;100.00
53300;BME280;39187;48.476;8.310;2023-04-28T04:16:43;90967.44;;;8.30;100.00
53300;BME280;39187;48.476;8.310;2023-04-28T04:19:10;90968.31;;;8.47;100.00
53300;BME280;39187;48.476;8.310;2023-04-28T04:21:35;90973.16;;;8.52;100.00
53300;BME280;39187;48.476;8.310;2023-04-28T04:24:01;90976.72;;;8.65;100.00
53300;BME280;39187;48.476;8.310;2023-04-28T04:26:27;90965.44;;;8.61;100.00
53300;BME280;39187;48.476;8.310;2023-04-28T04:28:52;90964.16;;;8.45;100.00
53300;BME280;39187;48.476;8.310;2023-04-28T04:31:18;90963.38;;;8.49;100.00
53300;BME280;39187;48.476;8.310;2023-04-28T04:33:47;90967.13;;;8.51;100.00
53300;BME280;39187;48.476;8.310;2023-04-28T04:36:13;90970.66;;;8.64;100.00
53300;BME280;39187;48.476;8.310;2023-04-28T04:38:39;90978.72;;;8.80;100.00
53300;BME280;39187;48.476;8.310;2023-04-28T04:41:04;90971.66;;;8.94;100.00
53300;BME280;39187;48.476;8.310;2023-04-28T04:43:30;90960.28;;;8.93;100.00
53300;BME280;39187;48.476;8.310;2023-04-28T04:45:55;90963.41;;;8.68;100.00
53300;BME280;39187;48.476;8.310;2023-04-28T04:48:21;90949.50;;;8.61;100.00
53300;BME280;39187;48.476;8.310;2023-04-28T04:50:47;90956.13;;;8.72;100.00
53300;BME280;39187;48.476;8.310;2023-04-28T04:53:13;90948.38;;;9.01;100.00
53300;BME280;39187;48.476;8.310;2023-04-28T04:55:39;90954.75;;;9.04;100.00
53300;BME280;39187;48.476;8.310;2023-04-28T04:58:04;90948.91;;;9.12;100.00
53300;BME280;39187;48.476;8.310;2023-04-28T05:00:30;90961.56;;;8.85;100.00
53300;BME280;39187;48.476;8.310;2023-04-28T05:02:55;90962.53;;;8.95;100.00
53300;BME280;39187;48.476;8.310;2023-04-28T05:05:21;90956.34;;;9.01;100.00
53300;BME280;39187;48.476;8.310;2023-04-28T05:07:46;90966.34;;;8.94;100.00
53300;BME280;39187;48.476;8.310;2023-04-28T05:10:12;90960.19;;;9.16;100.00
53300;BME280;39187;48.476;8.310;2023-04-28T05:12:38;90957.28;;;9.11;100.00
53300;BME280;39187;48.476;8.310;2023-04-28T05:15:05;90963.19;;;9.18;100.00
53300;BME280;39187;48.476;8.310;2023-04-28T05:17:31;90965.88;;;9.35;100.00
53300;BME280;39187;48.476;8.310;2023-04-28T05:19:56;90964.72;;;9.36;100.00
53300;BME280;39187;48.476;8.310;2023-04-28T05:22:22;90971.94;;;9.35;100.00
53300;BME280;39187;48.476;8.310;2023-04-28T05:24:47;90958.56;;;9.22;100.00
53300;BME280;39187;48.476;8.310;2023-04-28T05:27:13;90957.28;;;9.11;100.00
53300;BME280;39187;48.476;8.310;2023-04-28T05:29:39;90956.19;;;9.28;100.00
53300;BME280;39187;48.476;8.310;2023-04-28T05:32:04;90967.28;;;9.23;100.00
53300;BME280;39187;48.476;8.310;2023-04-28T05:34:30;90967.38;;;9.36;100.00
53300;BME280;39187;48.476;8.310;2023-04-28T05:36:55;90971.69;;;9.30;100.00
53300;BME280;39187;48.476;8.310;2023-04-28T05:39:21;90970.47;;;9.34;100.00
53300;BME280;39187;48.476;8.310;2023-04-28T05:41:47;90965.44;;;9.40;100.00
53300;BME280;39187;48.476;8.310;2023-04-28T05:44:12;90968.38;;;9.25;100.00
53300;BME280;39187;48.476;8.310;2023-04-28T05:46:38;90969.16;;;9.42;100.00
53300;BME280;39187;48.476;8.310;2023-04-28T05:49:03;90962.03;;;9.55;100.00
53300;BME280;39187;48.476;8.310;2023-04-28T05:51:29;90954.22;;;9.48;100.00
53300;BME280;39187;48.476;8.310;2023-04-28T05:53:54;90954.97;;;9.49;100.00
53300;BME280;39187;48.476;8.310;2023-04-28T05:56:20;90963.31;;;9.67;100.00
53300;BME280;39187;48.476;8.310;2023-04-28T05:58:45;90962.31;;;9.61;100.00
53300;BME280;39187;48.476;8.310;2023-04-28T06:01:13;90957.41;;;9.59;100.00
53300;BME280;39187;48.476;8.310;2023-04-28T06:03:39;90964.75;;;9.72;100.00
53300;BME280;39187;48.476;8.310;2023-04-28T06:06:06;90956.72;;;9.39;100.00
53300;BME280;39187;48.476;8.310;2023-04-28T06:08:32;90965.09;;;9.54;100.00
53300;BME280;39187;48.476;8.310;2023-04-28T06:10:57;90954.56;;;9.50;100.00
53300;BME280;39187;48.476;8.310;2023-04-28T06:13:23;90964.16;;;9.80;100.00
53300;BME280;39187;48.476;8.310;2023-04-28T06:15:49;90966.66;;;9.71;100.00
53300;BME280;39187;48.476;8.310;2023-04-28T06:18:14;90968.81;;;9.60;100.00
53300;BME280;39187;48.476;8.310;2023-04-28T06:20:41;90954.38;;;9.77;100.00
53300;BME280;39187;48.476;8.310;2023-04-28T06:23:06;90954.94;;;9.69;100.00
53300;BME280;39187;48.476;8.310;2023-04-28T06:25:34;90952.53;;;9.74;100.00
53300;BME280;39187;48.476;8.310;2023-04-28T06:28:00;90965.56;;;9.69;100.00
53300;BME280;39187;48.476;8.310;2023-04-28T06:30:26;90956.94;;;9.64;100.00
53300;BME280;39187;48.476;8.310;2023-04-28T06:32:52;90950.66;;;9.55;100.00
53300;BME280;39187;48.476;8.310;2023-04-28T06:35:17;90950.19;;;9.60;100.00
53300;BME280;39187;48.476;8.310;2023-04-28T06:37:43;90948.25;;;9.44;100.00
53300;BME280;39187;48.476;8.310;2023-04-28T06:40:09;90946.84;;;9.40;100.00
53300;BME280;39187;48.476;8.310;2023-04-28T06:42:35;90954.22;;;9.48;100.00
53300;BME280;39187;48.476;8.310;2023-04-28T06:45:01;90961.50;;;9.64;100.00
53300;BME280;39187;48.476;8.310;2023-04-28T06:47:27;90962.78;;;9.56;100.00
53300;BME280;39187;48.476;8.310;2023-04-28T06:49:52;90969.53;;;9.60;100.00
53300;BME280;39187;48.476;8.310;2023-04-28T06:52:18;90959.19;;;9.66;100.00
53300;BME280;39187;48.476;8.310;2023-04-28T06:54:46;90965.56;;;9.69;100.00
53300;BME280;39187;48.476;8.310;2023-04-28T06:57:12;90970.59;;;9.47;100.00
53300;BME280;39187;48.476;8.310;2023-04-28T06:59:37;90954.88;;;9.72;100.00
53300;BME280;39187;48.476;8.310;2023-04-28T07:02:03;90955.03;;;9.65;100.00
53300;BME280;39187;48.476;8.310;2023-04-28T07:04:29;90964.66;;;9.59;100.00
53300;BME280;39187;48.476;8.310;2023-04-28T07:06:54;90960.81;;;9.60;100.00
53300;BME280;39187;48.476;8.310;2023-04-28T07:09:20;90968.63;;;9.67;100.00
53300;BME280;39187;48.476;8.310;2023-04-28T07:11:46;90971.31;;;9.83;100.00
53300;BME280;39187;48.476;8.310;2023-04-28T07:14:11;90976.06;;;9.92;100.00
53300;BME280;39187;48.476;8.310;2023-04-28T07:16:37;90980.47;;;9.98;100.00
53300;BME280;39187;48.476;8.310;2023-04-28T07:19:02;90978.69;;;9.76;100.00
53300;BME280;39187;48.476;8.310;2023-04-28T07:21:28;90979.78;;;9.94;100.00
53300;BME280;39187;48.476;8.310;2023-04-28T07:23:54;90978.63;;;9.95;100.00
53300;BME280;39187;48.476;8.310;2023-04-28T07:26:22;90982.19;;;9.89;100.00
53300;BME280;39187;48.476;8.310;2023-04-28T07:28:48;90982.38;;;9.98;100.00
53300;BME280;39187;48.476;8.310;2023-04-28T07:31:14;90983.94;;;9.79;100.00
53300;BME280;39187;48.476;8.310;2023-04-28T07:33:39;90986.88;;;10.01;100.00
53300;BME280;39187;48.476;8.310;2023-04-28T07:36:05;90986.72;;;9.92;100.00
53300;BME280;39187;48.476;8.310;2023-04-28T07:38:33;90981.59;;;9.81;100.00
53300;BME280;39187;48.476;8.310;2023-04-28T07:40:59;90988.78;;;10.00;100.00
53300;BME280;39187;48.476;8.310;2023-04-28T07:43:24;90977.53;;;9.77;100.00
53300;BME280;39187;48.476;8.310;2023-04-28T07:45:50;90984.75;;;9.76;100.00
53300;BME280;39187;48.476;8.310;2023-04-28T07:48:15;90996.25;;;9.89;100.00
53300;BME280;39187;48.476;8.310;2023-04-28T07:50:41;90988.69;;;9.88;100.00
53300;BME280;39187;48.476;8.310;2023-04-28T07:53:06;90995.91;;;9.87;100.00
53300;BME280;39187;48.476;8.310;2023-04-28T07:55:33;90988.47;;;9.62;100.00
53300;BME280;39187;48.476;8.310;2023-04-28T07:57:58;90996.00;;;10.00;100.00
53300;BME280;39187;48.476;8.310;2023-04-28T08:00:24;90997.41;;;9.88;100.00
53300;BME280;39187;48.476;8.310;2023-04-28T08:02:50;91007.06;;;9.98;100.00
53300;BME280;39187;48.476;8.310;2023-04-28T08:05:16;91000.66;;;9.96;100.00
53300;BME280;39187;48.476;8.310;2023-04-28T08:07:42;91004.66;;;10.04;100.00
53300;BME280;39187;48.476;8.310;2023-04-28T08:10:09;91006.28;;;10.18;100.00
53300;BME280;39187;48.476;8.310;2023-04-28T08:12:34;91011.75;;;10.27;100.00
53300;BME280;39187;48.476;8.310;2023-04-28T08:15:00;91014.16;;;10.21;100.00
53300;BME280;39187;48.476;8.310;2023-04-28T08:17:26;91015.50;;;10.29;100.00
53300;BME280;39187;48.476;8.310;2023-04-28T08:19:52;91009.75;;;10.31;100.00
53300;BME280;39187;48.476;8.310;2023-04-28T08:22:18;91016.91;;;10.34;100.00
53300;BME280;39187;48.476;8.310;2023-04-28T08:24:43;91025.88;;;10.40;100.00
53300;BME280;39187;48.476;8.310;2023-04-28T08:27:09;91018.56;;;10.44;100.00
53300;BME280;39187;48.476;8.310;2023-04-28T08:29:35;91035.34;;;10.57;100.00
53300;BME280;39187;48.476;8.310;2023-04-28T08:32:00;91030.84;;;10.70;100.00
53300;BME280;39187;48.476;8.310;2023-04-28T08:34:26;91036.69;;;10.65;100.00
53300;BME280;39187;48.476;8.310;2023-04-28T08:36:52;91047.16;;;10.72;100.00
53300;BME280;39187;48.476;8.310;2023-04-28T08:39:18;91039.75;;;10.64;100.00
53300;BME280;39187;48.476;8.310;2023-04-28T08:41:44;91046.75;;;10.74;100.00
53300;BME280;39187;48.476;8.310;2023-04-28T08:44:11;91056.31;;;10.71;100.00
53300;BME280;39187;48.476;8.310;2023-04-28T08:46:40;91048.44;;;10.68;100.00
53300;BME280;39187;48.476;8.310;2023-04-28T08:49:12;91053.50;;;10.62;100.00
53300;BME280;39187;48.476;8.310;2023-04-28T08:51:45;91061.28;;;10.85;100.00
53300;BME280;39187;48.476;8.310;2023-04-28T08:54:14;91055.38;;;10.78;100.00
53300;BME280;39187;48.476;8.310;2023-04-28T08:56:45;91048.16;;;10.78;100.00
53300;BME280;39187;48.476;8.310;2023-04-28T08:59:11;91048.22;;;10.91;100.00
53300;BME280;39187;48.476;8.310;2023-04-28T09:01:37;91046.66;;;10.77;100.00
53300;BME280;39187;48.476;8.310;2023-04-28T09:04:03;91042.00;;;10.65;100.00
53300;BME280;39187;48.476;8.310;2023-04-28T09:06:38;91058.06;;;10.78;100.00
53300;BME280;39187;48.476;8.310;2023-04-28T09:09:26;91059.03;;;11.00;100.00
53300;BME280;39187;48.476;8.310;2023-04-28T09:11:56;91055.19;;;11.01;100.00
53300;BME280;39187;48.476;8.310;2023-04-28T09:14:24;91067.56;;;11.08;100.00
53300;BME280;39187;48.476;8.310;2023-04-28T09:16:51;91067.16;;;11.09;100.00
53300;BME280;39187;48.476;8.310;2023-04-28T09:19:17;91069.31;;;11.14;100.00
53300;BME280;39187;48.476;8.310;2023-04-28T09:24:30;91083.47;;;11.11;100.00
53300;BME280;39187;48.476;8.310;2023-04-28T09:26:58;91082.19;;;11.32;100.00
53300;BME280;39187;48.476;8.310;2023-04-28T09:29:24;91067.13;;;11.25;100.00
53300;BME280;39187;48.476;8.310;2023-04-28T09:31:50;91075.91;;;11.10;100.00
53300;BME280;39187;48.476;8.310;2023-04-28T09:34:16;91060.50;;;11.01;100.00
53300;BME280;39187;48.476;8.310;2023-04-28T09:36:41;91069.00;;;11.12;100.00
53300;BME280;39187;48.476;8.310;2023-04-28T09:39:07;91070.44;;;11.01;100.00
53300;BME280;39187;48.476;8.310;2023-04-28T09:41:40;91067.34;;;11.02;100.00
53300;BME280;39187;48.476;8.310;2023-04-28T09:44:16;91073.16;;;11.13;100.00
53300;BME280;39187;48.476;8.310;2023-04-28T09:46:43;91068.38;;;11.21;100.00
53300;BME280;39187;48.476;8.310;2023-04-28T09:49:10;91074.91;;;11.20;100.00
53300;BME280;39187;48.476;8.310;2023-04-28T09:51:36;91074.75;;;11.11;100.00
53300;BME280;39187;48.476;8.310;2023-04-28T09:54:02;91078.97;;;11.08;100.00
53300;BME280;39187;48.476;8.310;2023-04-28T09:56:29;91071.97;;;11.14;100.00
53300;BME280;39187;48.476;8.310;2023-04-28T09:58:59;91081.28;;;11.22;100.00
53300;BME280;39187;48.476;8.310;2023-04-28T10:01:36;91077.00;;;11.41;100.00
53300;BME280;39187;48.476;8.310;2023-04-28T10:04:04;91077.69;;;11.58;100.00
53300;BME280;39187;48.476;8.310;2023-04-28T10:06:33;91078.16;;;11.69;100.00
53300;BME280;39187;48.476;8.310;2023-04-28T10:09:04;91081.63;;;11.53;100.00
53300;BME280;39187;48.476;8.310;2023-04-28T10:11:30;91082.63;;;11.72;100.00
53300;BME280;39187;48.476;8.310;2023-04-28T10:13:58;91080.66;;;11.76;100.00
53300;BME280;39187;48.476;8.310;2023-04-28T10:16:23;91086.25;;;11.37;100.00
53300;BME280;39187;48.476;8.310;2023-04-28T10:18:52;91085.69;;;11.58;100.00
53300;BME280;39187;48.476;8.310;2023-04-28T10:21:20;91088.66;;;11.76;100.00
53300;BME280;39187;48.476;8.310;2023-04-28T10:27:07;91084.38;;;11.50;100.00
53300;BME280;39187;48.476;8.310;2023-04-28T10:29:34;91089.75;;;11.34;100.00
53300;BME280;39187;48.476;8.310;2023-04-28T10:32:24;91091.22;;;11.51;100.00
53300;BME280;39187;48.476;8.310;2023-04-28T10:34:50;91088.44;;;11.54;100.00
53300;BME280;39187;48.476;8.310;2023-04-28T10:37:16;91082.59;;;11.59;100.00
53300;BME280;39187;48.476;8.310;2023-04-28T10:42:54;91076.38;;;11.79;100.00
53300;BME280;39187;48.476;8.310;2023-04-28T10:49:02;91076.78;;;12.19;100.00
53300;BME280;39187;48.476;8.310;2023-04-28T10:56:18;91080.81;;;12.23;100.00
53300;BME280;39187;48.476;8.310;2023-04-28T11:06:42;91087.03;;;11.79;100.00
53300;BME280;39187;48.476;8.310;2023-04-28T11:11:37;91088.72;;;12.01;100.00
53300;BME280;39187;48.476;8.310;2023-04-28T11:16:52;91079.28;;;11.84;100.00
53300;BME280;39187;48.476;8.310;2023-04-28T11:19:23;91076.44;;;11.62;100.00
53300;BME280;39187;48.476;8.310;2023-04-28T11:21:50;91072.13;;;11.81;100.00
53300;BME280;39187;48.476;8.310;2023-04-28T11:24:16;91076.72;;;11.81;100.00
53300;BME280;39187;48.476;8.310;2023-04-28T11:26:42;91077.25;;;11.76;100.00
53300;BME280;39187;48.476;8.310;2023-04-28T11:29:08;91074.41;;;11.95;100.00
53300;BME280;39187;48.476;8.310;2023-04-28T11:31:34;91073.63;;;11.82;100.00
53300;BME280;39187;48.476;8.310;2023-04-28T11:34:08;91080.59;;;12.18;100.00
53300;BME280;39187;48.476;8.310;2023-04-28T11:36:40;91079.44;;;12.19;100.00
53300;BME280;39187;48.476;8.310;2023-04-28T11:39:10;91074.19;;;11.90;100.00
53300;BME280;39187;48.476;8.310;2023-04-28T11:41:42;91071.00;;;12.20;100.00
53300;BME280;39187;48.476;8.310;2023-04-28T11:44:15;91071.22;;;12.38;100.00
53300;BME280;39187;48.476;8.310;2023-04-28T11:46:51;91067.28;;;12.30;100.00
53300;BME280;39187;48.476;8.310;2023-04-28T11:49:21;91071.41;;;12.06;100.00
53300;BME280;39187;48.476;8.310;2023-04-28T11:51:50;91069.94;;;12.18;100.00
53300;BME280;39187;48.476;8.310;2023-04-28T11:54:20;91074.09;;;12.44;100.00
53300;BME280;39187;48.476;8.310;2023-04-28T11:56:47;91084.38;;;12.33;100.00
53300;BME280;39187;48.476;8.310;2023-04-28T11:59:12;91076.66;;;12.10;100.00
53300;BME280;39187;48.476;8.310;2023-04-28T12:01:55;91078.81;;;12.27;100.00
53300;BME280;39187;48.476;8.310;2023-04-28T12:04:34;91071.84;;;12.17;100.00
53300;BME280;39187;48.476;8.310;2023-04-28T12:09:28;91072.50;;;12.09;100.00
53300;BME280;39187;48.476;8.310;2023-04-28T12:11:55;91074.06;;;11.93;100.00
53300;BME280;39187;48.476;8.310;2023-04-28T12:14:22;91062.00;;;11.89;100.00
53300;BME280;39187;48.476;8.310;2023-04-28T12:16:48;91070.88;;;12.11;100.00
53300;BME280;39187;48.476;8.310;2023-04-28T12:19:15;91074.94;;;11.90;100.00
53300;BME280;39187;48.476;8.310;2023-04-28T12:21:42;91071.53;;;12.02;100.00
53300;BME280;39187;48.476;8.310;2023-04-28T12:24:14;91066.84;;;12.19;100.00
53300;BME280;39187;48.476;8.310;2023-04-28T12:26:40;91065.53;;;11.98;100.00
53300;BME280;39187;48.476;8.310;2023-04-28T12:29:06;91076.59;;;11.84;100.00
53300;BME280;39187;48.476;8.310;2023-04-28T12:31:47;91071.91;;;11.76;100.00
53300;BME280;39187;48.476;8.310;2023-04-28T12:34:13;91067.44;;;11.85;100.00
53300;BME280;39187;48.476;8.310;2023-04-28T12:36:40;91068.31;;;11.95;100.00
53300;BME280;39187;48.476;8.310;2023-04-28T12:39:05;91059.88;;;11.84;100.00
53300;BME280;39187;48.476;8.310;2023-04-28T12:41:31;91064.25;;;11.90;100.00
53300;BME280;39187;48.476;8.310;2023-04-28T12:43:57;91071.72;;;11.83;100.00
53300;BME280;39187;48.476;8.310;2023-04-28T12:46:23;91081.84;;;11.59;100.00
53300;BME280;39187;48.476;8.310;2023-04-28T12:48:48;91086.97;;;11.82;100.00
53300;BME280;39187;48.476;8.310;2023-04-28T12:51:14;91073.94;;;11.84;100.00
53300;BME280;39187;48.476;8.310;2023-04-28T12:53:39;91074.06;;;11.52;100.00
53300;BME280;39187;48.476;8.310;2023-04-28T12:56:05;91075.88;;;11.55;100.00
53300;BME280;39187;48.476;8.310;2023-04-28T12:58:31;91076.50;;;11.59;100.00
53300;BME280;39187;48.476;8.310;2023-04-28T13:00:56;91065.31;;;11.51;100.00
53300;BME280;39187;48.476;8.310;2023-04-28T13:03:22;91069.28;;;11.72;100.00
53300;BME280;39187;48.476;8.310;2023-04-28T13:05:47;91065.81;;;11.75;100.00
53300;BME280;39187;48.476;8.310;2023-04-28T13:08:13;91068.72;;;11.81;100.00
53300;BME280;39187;48.476;8.310;2023-04-28T13:10:39;91067.19;;;11.38;100.00
53300;BME280;39187;48.476;8.310;2023-04-28T13:13:05;91065.56;;;11.70;100.00
53300;BME280;39187;48.476;8.310;2023-04-28T13:15:30;91070.16;;;11.69;100.00
53300;BME280;39187;48.476;8.310;2023-04-28T13:17:56;91072.06;;;11.69;100.00
53300;BME280;39187;48.476;8.310;2023-04-28T13:20:23;91057.47;;;11.73;100.00
53300;BME280;39187;48.476;8.310;2023-04-28T13:22:49;91059.75;;;11.75;100.00
53300;BME280;39187;48.476;8.310;2023-04-28T13:25:15;91060.44;;;11.62;100.00
53300;BME280;39187;48.476;8.310;2023-04-28T13:27:40;91056.09;;;11.40;100.00